sensor_id;sensor_type;location;lat;lon;timestamp;P1;durP1;ratioP1;P2;durP2;ratioP2
8050;SDS011;4068;42.158;24.732;2024-03-17T00:01:43;22.73;;;13.73;;
8050;SDS011;4068;42.158;24.732;2024-03-17T00:04:09;19.13;;;12.98;;
8050;SDS011;4068;42.158;24.732;2024-03-17T00:06:34;23.90;;;12.35;;
8050;SDS011;4068;42.158;24.732;2024-03-17T00:09:00;23.25;;;14.77;;
8050;SDS011;4068;42.158;24.732;2024-03-17T00:11:31;21.67;;;13.23;;
8050;SDS011;4068;42.158;24.732;2024-03-17T00:14:00;22.83;;;13.48;;
8050;SDS011;4068;42.158;24.732;2024-03-17T00:16:30;23.38;;;13.90;;
8050;SDS011;4068;42.158;24.732;2024-03-17T00:18:55;24.27;;;13.02;;
8050;SDS011;4068;42.158;24.732;2024-03-17T00:21:21;20.58;;;12.43;;
8050;SDS011;4068;42.158;24.732;2024-03-17T00:23:47;20.52;;;12.68;;
8050;SDS011;4068;42.158;24.732;2024-03-17T00:26:14;27.73;;;14.32;;
8050;SDS011;4068;42.158;24.732;2024-03-17T00:28:40;30.90;;;15.40;;
8050;SDS011;4068;42.158;24.732;2024-03-17T00:31:06;27.67;;;15.30;;
8050;SDS011;4068;42.158;24.732;2024-03-17T00:33:35;25.00;;;13.80;;
8050;SDS011;4068;42.158;24.732;2024-03-17T00:36:00;26.17;;;14.77;;
8050;SDS011;4068;42.158;24.732;2024-03-17T00:38:26;27.48;;;16.65;;
8050;SDS011;4068;42.158;24.732;2024-03-17T00:40:51;29.52;;;15.60;;
8050;SDS011;4068;42.158;24.732;2024-03-17T00:43:17;23.88;;;14.68;;
8050;SDS011;4068;42.158;24.732;2024-03-17T00:45:42;30.08;;;16.88;;
8050;SDS011;4068;42.158;24.732;2024-03-17T00:48:08;29.48;;;16.17;;
8050;SDS011;4068;42.158;24.732;2024-03-17T00:50:34;31.92;;;16.88;;
8050;SDS011;4068;42.158;24.732;2024-03-17T00:53:00;31.80;;;17.63;;
8050;SDS011;4068;42.158;24.732;2024-03-17T00:55:28;28.83;;;17.52;;
8050;SDS011;4068;42.158;24.732;2024-03-17T00:57:53;30.80;;;17.08;;
8050;SDS011;4068;42.158;24.732;2024-03-17T01:00:19;32.22;;;17.92;;
8050;SDS011;4068;42.158;24.732;2024-03-17T01:02:45;33.10;;;18.67;;
8050;SDS011;4068;42.158;24.732;2024-03-17T01:05:11;34.90;;;18.05;;
8050;SDS011;4068;42.158;24.732;2024-03-17T01:07:36;29.98;;;18.90;;
8050;SDS011;4068;42.158;24.732;2024-03-17T01:10:02;35.05;;;18.15;;
8050;SDS011;4068;42.158;24.732;2024-03-17T01:12:28;31.25;;;18.02;;
8050;SDS011;4068;42.158;24.732;2024-03-17T01:14:53;30.80;;;16.92;;
8050;SDS011;4068;42.158;24.732;2024-03-17T01:17:19;39.80;;;18.55;;
8050;SDS011;4068;42.158;24.732;2024-03-17T01:19:44;30.40;;;17.60;;
8050;SDS011;4068;42.158;24.732;2024-03-17T01:22:10;38.28;;;17.63;;
8050;SDS011;4068;42.158;24.732;2024-03-17T01:24:36;31.35;;;18.00;;
8050;SDS011;4068;42.158;24.732;2024-03-17T01:27:04;30.83;;;18.50;;
8050;SDS011;4068;42.158;24.732;2024-03-17T01:29:30;33.38;;;17.75;;
8050;SDS011;4068;42.158;24.732;2024-03-17T01:31:55;31.48;;;17.17;;
8050;SDS011;4068;42.158;24.732;2024-03-17T01:34:21;27.30;;;16.60;;
8050;SDS011;4068;42.158;24.732;2024-03-17T01:36:47;27.55;;;15.82;;
8050;SDS011;4068;42.158;24.732;2024-03-17T01:39:12;28.00;;;16.10;;
8050;SDS011;4068;42.158;24.732;2024-03-17T01:41:38;28.10;;;15.93;;
8050;SDS011;4068;42.158;24.732;2024-03-17T01:44:04;29.60;;;16.02;;
8050;SDS011;4068;42.158;24.732;2024-03-17T01:46:30;28.80;;;15.67;;
8050;SDS011;4068;42.158;24.732;2024-03-17T01:48:56;29.10;;;15.23;;
8050;SDS011;4068;42.158;24.732;2024-03-17T01:51:22;24.95;;;14.95;;
8050;SDS011;4068;42.158;24.732;2024-03-17T01:53:49;27.40;;;15.50;;
8050;SDS011;4068;42.158;24.732;2024-03-17T01:56:15;25.35;;;15.15;;
8050;SDS011;4068;42.158;24.732;2024-03-17T01:58:44;27.02;;;15.35;;
8050;SDS011;4068;42.158;24.732;2024-03-17T02:01:13;32.05;;;16.20;;
8050;SDS011;4068;42.158;24.732;2024-03-17T02:03:41;24.33;;;15.70;;
8050;SDS011;4068;42.158;24.732;2024-03-17T02:06:10;24.30;;;14.75;;
8050;SDS011;4068;42.158;24.732;2024-03-17T02:08:51;25.03;;;15.30;;
8050;SDS011;4068;42.158;24.732;2024-03-17T02:11:29;26.00;;;15.47;;
8050;SDS011;4068;42.158;24.732;2024-03-17T02:13:56;25.33;;;14.13;;
8050;SDS011;4068;42.158;24.732;2024-03-17T02:16:23;27.37;;;14.73;;
8050;SDS011;4068;42.158;24.732;2024-03-17T02:18:48;26.60;;;15.53;;
8050;SDS011;4068;42.158;24.732;2024-03-17T02:21:15;26.20;;;14.55;;
8050;SDS011;4068;42.158;24.732;2024-03-17T02:23:44;28.75;;;15.38;;
8050;SDS011;4068;42.158;24.732;2024-03-17T02:26:09;28.52;;;15.55;;
8050;SDS011;4068;42.158;24.732;2024-03-17T02:28:42;23.27;;;14.60;;
8050;SDS011;4068;42.158;24.732;2024-03-17T02:31:09;25.70;;;15.63;;
8050;SDS011;4068;42.158;24.732;2024-03-17T02:33:37;27.30;;;15.43;;
8050;SDS011;4068;42.158;24.732;2024-03-17T02:36:03;27.67;;;15.63;;
8050;SDS011;4068;42.158;24.732;2024-03-17T02:38:32;28.85;;;16.20;;
8050;SDS011;4068;42.158;24.732;2024-03-17T02:41:17;27.40;;;15.25;;
8050;SDS011;4068;42.158;24.732;2024-03-17T02:43:43;26.80;;;15.40;;
8050;SDS011;4068;42.158;24.732;2024-03-17T02:46:14;30.65;;;15.32;;
8050;SDS011;4068;42.158;24.732;2024-03-17T02:48:40;29.30;;;16.05;;
8050;SDS011;4068;42.158;24.732;2024-03-17T02:51:16;30.02;;;15.75;;
8050;SDS011;4068;42.158;24.732;2024-03-17T02:53:44;29.70;;;16.25;;
8050;SDS011;4068;42.158;24.732;2024-03-17T02:56:11;25.83;;;15.82;;
8050;SDS011;4068;42.158;24.732;2024-03-17T02:58:37;29.70;;;17.05;;
8050;SDS011;4068;42.158;24.732;2024-03-17T03:01:03;30.60;;;17.43;;
8050;SDS011;4068;42.158;24.732;2024-03-17T03:03:30;32.40;;;16.93;;
8050;SDS011;4068;42.158;24.732;2024-03-17T03:05:58;31.83;;;17.42;;
8050;SDS011;4068;42.158;24.732;2024-03-17T03:08:29;30.77;;;16.70;;
8050;SDS011;4068;42.158;24.732;2024-03-17T03:10:55;29.20;;;16.63;;
8050;SDS011;4068;42.158;24.732;2024-03-17T03:13:20;40.13;;;18.83;;
8050;SDS011;4068;42.158;24.732;2024-03-17T03:15:47;32.28;;;18.52;;
8050;SDS011;4068;42.158;24.732;2024-03-17T03:18:13;31.40;;;18.93;;
8050;SDS011;4068;42.158;24.732;2024-03-17T03:20:39;32.70;;;18.70;;
8050;SDS011;4068;42.158;24.732;2024-03-17T03:23:05;32.60;;;17.97;;
8050;SDS011;4068;42.158;24.732;2024-03-17T03:25:31;31.10;;;17.70;;
8050;SDS011;4068;42.158;24.732;2024-03-17T03:27:56;38.15;;;18.33;;
8050;SDS011;4068;42.158;24.732;2024-03-17T03:30:23;33.33;;;16.80;;
8050;SDS011;4068;42.158;24.732;2024-03-17T03:32:49;33.50;;;17.93;;
8050;SDS011;4068;42.158;24.732;2024-03-17T03:35:14;26.97;;;17.37;;
8050;SDS011;4068;42.158;24.732;2024-03-17T03:37:40;31.03;;;16.90;;
8050;SDS011;4068;42.158;24.732;2024-03-17T03:40:06;29.10;;;16.20;;
8050;SDS011;4068;42.158;24.732;2024-03-17T03:42:42;30.97;;;17.53;;
8050;SDS011;4068;42.158;24.732;2024-03-17T03:45:09;31.83;;;16.40;;
8050;SDS011;4068;42.158;24.732;2024-03-17T03:47:40;30.53;;;16.00;;
8050;SDS011;4068;42.158;24.732;2024-03-17T03:50:07;33.37;;;16.97;;
8050;SDS011;4068;42.158;24.732;2024-03-17T03:52:37;34.30;;;17.67;;
8050;SDS011;4068;42.158;24.732;2024-03-17T03:55:03;38.03;;;18.90;;
8050;SDS011;4068;42.158;24.732;2024-03-17T03:57:29;34.97;;;18.37;;
8050;SDS011;4068;42.158;24.732;2024-03-17T03:59:57;30.77;;;17.83;;
8050;SDS011;4068;42.158;24.732;2024-03-17T04:02:23;32.07;;;17.03;;
8050;SDS011;4068;42.158;24.732;2024-03-17T04:04:50;30.47;;;16.23;;
8050;SDS011;4068;42.158;24.732;2024-03-17T04:07:15;34.00;;;16.20;;
8050;SDS011;4068;42.158;24.732;2024-03-17T04:09:41;28.23;;;15.83;;
8050;SDS011;4068;42.158;24.732;2024-03-17T04:12:07;29.30;;;15.20;;
8050;SDS011;4068;42.158;24.732;2024-03-17T04:14:32;27.50;;;15.40;;
8050;SDS011;4068;42.158;24.732;2024-03-17T04:16:58;24.43;;;15.40;;
8050;SDS011;4068;42.158;24.732;2024-03-17T04:19:24;23.93;;;14.20;;
8050;SDS011;4068;42.158;24.732;2024-03-17T04:21:51;27.87;;;15.50;;
8050;SDS011;4068;42.158;24.732;2024-03-17T04:24:16;23.83;;;15.33;;
8050;SDS011;4068;42.158;24.732;2024-03-17T04:26:42;31.23;;;16.20;;
8050;SDS011;4068;42.158;24.732;2024-03-17T04:29:08;28.30;;;16.57;;
8050;SDS011;4068;42.158;24.732;2024-03-17T04:31:34;30.43;;;16.67;;
8050;SDS011;4068;42.158;24.732;2024-03-17T04:33:59;28.90;;;16.97;;
8050;SDS011;4068;42.158;24.732;2024-03-17T04:36:24;30.17;;;17.07;;
8050;SDS011;4068;42.158;24.732;2024-03-17T04:38:50;32.57;;;17.50;;
8050;SDS011;4068;42.158;24.732;2024-03-17T04:41:16;33.87;;;17.53;;
8050;SDS011;4068;42.158;24.732;2024-03-17T04:43:42;28.13;;;16.90;;
8050;SDS011;4068;42.158;24.732;2024-03-17T04:46:07;34.73;;;17.43;;
8050;SDS011;4068;42.158;24.732;2024-03-17T04:48:36;27.43;;;16.77;;
8050;SDS011;4068;42.158;24.732;2024-03-17T04:51:02;33.40;;;17.90;;
8050;SDS011;4068;42.158;24.732;2024-03-17T04:53:29;33.13;;;16.83;;
8050;SDS011;4068;42.158;24.732;2024-03-17T04:55:58;33.17;;;18.03;;
8050;SDS011;4068;42.158;24.732;2024-03-17T04:58:29;34.67;;;18.07;;
8050;SDS011;4068;42.158;24.732;2024-03-17T05:00:55;40.83;;;18.67;;
8050;SDS011;4068;42.158;24.732;2024-03-17T05:03:20;31.00;;;17.07;;
8050;SDS011;4068;42.158;24.732;2024-03-17T05:05:45;35.70;;;18.10;;
8050;SDS011;4068;42.158;24.732;2024-03-17T05:08:11;29.80;;;17.87;;
8050;SDS011;4068;42.158;24.732;2024-03-17T05:10:36;31.07;;;17.77;;
8050;SDS011;4068;42.158;24.732;2024-03-17T05:13:02;30.07;;;17.70;;
8050;SDS011;4068;42.158;24.732;2024-03-17T05:15:28;37.00;;;17.80;;
8050;SDS011;4068;42.158;24.732;2024-03-17T05:17:53;31.07;;;18.00;;
8050;SDS011;4068;42.158;24.732;2024-03-17T05:20:19;30.70;;;16.93;;
8050;SDS011;4068;42.158;24.732;2024-03-17T05:22:46;36.10;;;17.30;;
8050;SDS011;4068;42.158;24.732;2024-03-17T05:25:13;29.55;;;17.40;;
8050;SDS011;4068;42.158;24.732;2024-03-17T05:27:38;32.63;;;18.38;;
8050;SDS011;4068;42.158;24.732;2024-03-17T05:30:04;34.20;;;17.38;;
8050;SDS011;4068;42.158;24.732;2024-03-17T05:32:33;31.38;;;18.35;;
8050;SDS011;4068;42.158;24.732;2024-03-17T05:34:59;32.47;;;17.95;;
8050;SDS011;4068;42.158;24.732;2024-03-17T05:37:24;36.42;;;18.48;;
8050;SDS011;4068;42.158;24.732;2024-03-17T05:39:50;32.70;;;17.98;;
8050;SDS011;4068;42.158;24.732;2024-03-17T05:42:15;36.95;;;20.00;;
8050;SDS011;4068;42.158;24.732;2024-03-17T05:44:41;40.03;;;20.38;;
8050;SDS011;4068;42.158;24.732;2024-03-17T05:47:18;51.88;;;20.48;;
8050;SDS011;4068;42.158;24.732;2024-03-17T05:49:44;36.00;;;20.33;;
8050;SDS011;4068;42.158;24.732;2024-03-17T05:52:10;40.13;;;18.40;;
8050;SDS011;4068;42.158;24.732;2024-03-17T05:54:36;36.55;;;19.27;;
8050;SDS011;4068;42.158;24.732;2024-03-17T05:57:02;35.60;;;19.67;;
8050;SDS011;4068;42.158;24.732;2024-03-17T05:59:29;37.80;;;19.13;;
8050;SDS011;4068;42.158;24.732;2024-03-17T06:01:58;34.40;;;19.52;;
8050;SDS011;4068;42.158;24.732;2024-03-17T06:04:23;38.08;;;21.15;;
8050;SDS011;4068;42.158;24.732;2024-03-17T06:06:49;36.10;;;20.10;;
8050;SDS011;4068;42.158;24.732;2024-03-17T06:09:14;34.90;;;18.83;;
8050;SDS011;4068;42.158;24.732;2024-03-17T06:11:43;31.40;;;18.20;;
8050;SDS011;4068;42.158;24.732;2024-03-17T06:14:08;33.83;;;18.02;;
8050;SDS011;4068;42.158;24.732;2024-03-17T06:16:37;32.13;;;18.63;;
8050;SDS011;4068;42.158;24.732;2024-03-17T06:19:02;38.22;;;18.67;;
8050;SDS011;4068;42.158;24.732;2024-03-17T06:21:28;30.77;;;18.23;;
8050;SDS011;4068;42.158;24.732;2024-03-17T06:23:53;27.77;;;15.98;;
8050;SDS011;4068;42.158;24.732;2024-03-17T06:26:19;27.98;;;16.05;;
8050;SDS011;4068;42.158;24.732;2024-03-17T06:28:45;27.60;;;16.02;;
8050;SDS011;4068;42.158;24.732;2024-03-17T06:31:11;30.73;;;16.15;;
8050;SDS011;4068;42.158;24.732;2024-03-17T06:33:37;36.72;;;16.92;;
8050;SDS011;4068;42.158;24.732;2024-03-17T06:36:03;32.78;;;17.00;;
8050;SDS011;4068;42.158;24.732;2024-03-17T06:38:29;30.73;;;16.50;;
8050;SDS011;4068;42.158;24.732;2024-03-17T06:40:55;29.30;;;16.52;;
8050;SDS011;4068;42.158;24.732;2024-03-17T06:43:20;27.90;;;16.70;;
8050;SDS011;4068;42.158;24.732;2024-03-17T06:45:59;31.10;;;16.88;;
8050;SDS011;4068;42.158;24.732;2024-03-17T06:48:25;28.70;;;16.38;;
8050;SDS011;4068;42.158;24.732;2024-03-17T06:50:52;34.22;;;17.20;;
8050;SDS011;4068;42.158;24.732;2024-03-17T06:53:19;33.33;;;17.48;;
8050;SDS011;4068;42.158;24.732;2024-03-17T06:55:52;33.33;;;17.25;;
8050;SDS011;4068;42.158;24.732;2024-03-17T06:58:22;29.15;;;16.45;;
8050;SDS011;4068;42.158;24.732;2024-03-17T07:01:00;26.80;;;16.73;;
8050;SDS011;4068;42.158;24.732;2024-03-17T07:03:27;29.00;;;17.02;;
8050;SDS011;4068;42.158;24.732;2024-03-17T07:05:54;29.50;;;16.33;;
8050;SDS011;4068;42.158;24.732;2024-03-17T07:08:21;30.88;;;17.23;;
8050;SDS011;4068;42.158;24.732;2024-03-17T07:13:28;27.45;;;16.85;;
8050;SDS011;4068;42.158;24.732;2024-03-17T07:15:55;30.27;;;17.70;;
8050;SDS011;4068;42.158;24.732;2024-03-17T07:18:20;29.42;;;17.85;;
8050;SDS011;4068;42.158;24.732;2024-03-17T07:20:46;30.38;;;17.60;;
8050;SDS011;4068;42.158;24.732;2024-03-17T07:23:13;26.60;;;17.33;;
8050;SDS011;4068;42.158;24.732;2024-03-17T07:25:40;27.75;;;16.77;;
8050;SDS011;4068;42.158;24.732;2024-03-17T07:28:06;26.17;;;15.98;;
8050;SDS011;4068;42.158;24.732;2024-03-17T07:30:32;26.65;;;16.75;;
8050;SDS011;4068;42.158;24.732;2024-03-17T07:32:57;26.73;;;16.80;;
8050;SDS011;4068;42.158;24.732;2024-03-17T07:35:23;27.73;;;16.77;;
8050;SDS011;4068;42.158;24.732;2024-03-17T07:37:48;26.38;;;16.20;;
8050;SDS011;4068;42.158;24.732;2024-03-17T07:40:14;28.00;;;17.58;;
8050;SDS011;4068;42.158;24.732;2024-03-17T07:42:40;29.23;;;16.48;;
8050;SDS011;4068;42.158;24.732;2024-03-17T07:45:07;26.00;;;16.33;;
8050;SDS011;4068;42.158;24.732;2024-03-17T07:47:33;21.98;;;14.50;;
8050;SDS011;4068;42.158;24.732;2024-03-17T07:50:04;22.92;;;15.13;;
8050;SDS011;4068;42.158;24.732;2024-03-17T07:52:33;26.45;;;16.15;;
8050;SDS011;4068;42.158;24.732;2024-03-17T07:54:59;24.42;;;15.73;;
8050;SDS011;4068;42.158;24.732;2024-03-17T07:57:24;29.08;;;16.75;;
8050;SDS011;4068;42.158;24.732;2024-03-17T07:59:50;28.35;;;16.23;;
8050;SDS011;4068;42.158;24.732;2024-03-17T08:02:16;33.33;;;17.33;;
8050;SDS011;4068;42.158;24.732;2024-03-17T08:04:42;28.92;;;17.15;;
8050;SDS011;4068;42.158;24.732;2024-03-17T08:07:09;25.75;;;16.48;;
8050;SDS011;4068;42.158;24.732;2024-03-17T08:09:35;25.08;;;16.20;;
8050;SDS011;4068;42.158;24.732;2024-03-17T08:12:01;27.75;;;17.30;;
8050;SDS011;4068;42.158;24.732;2024-03-17T08:14:29;28.75;;;15.50;;
8050;SDS011;4068;42.158;24.732;2024-03-17T08:16:55;23.30;;;15.18;;
8050;SDS011;4068;42.158;24.732;2024-03-17T08:19:20;24.77;;;15.68;;
8050;SDS011;4068;42.158;24.732;2024-03-17T08:21:46;23.80;;;15.23;;
8050;SDS011;4068;42.158;24.732;2024-03-17T08:24:11;26.30;;;14.40;;
8050;SDS011;4068;42.158;24.732;2024-03-17T08:26:38;24.67;;;15.05;;
8050;SDS011;4068;42.158;24.732;2024-03-17T08:29:05;24.60;;;15.18;;
8050;SDS011;4068;42.158;24.732;2024-03-17T08:31:31;26.60;;;15.95;;
8050;SDS011;4068;42.158;24.732;2024-03-17T08:33:57;24.75;;;16.63;;
8050;SDS011;4068;42.158;24.732;2024-03-17T08:36:23;27.80;;;16.95;;
8050;SDS011;4068;42.158;24.732;2024-03-17T08:38:49;25.58;;;16.33;;
8050;SDS011;4068;42.158;24.732;2024-03-17T08:41:15;27.02;;;15.35;;
8050;SDS011;4068;42.158;24.732;2024-03-17T08:43:41;26.42;;;16.08;;
8050;SDS011;4068;42.158;24.732;2024-03-17T08:46:08;25.58;;;15.38;;
8050;SDS011;4068;42.158;24.732;2024-03-17T08:48:54;23.17;;;16.33;;
8050;SDS011;4068;42.158;24.732;2024-03-17T08:51:19;27.33;;;16.30;;
8050;SDS011;4068;42.158;24.732;2024-03-17T08:53:45;26.92;;;16.88;;
8050;SDS011;4068;42.158;24.732;2024-03-17T08:56:10;28.85;;;16.83;;
8050;SDS011;4068;42.158;24.732;2024-03-17T08:58:36;27.02;;;17.30;;
8050;SDS011;4068;42.158;24.732;2024-03-17T09:01:08;23.65;;;16.13;;
8050;SDS011;4068;42.158;24.732;2024-03-17T09:03:34;28.27;;;16.83;;
8050;SDS011;4068;42.158;24.732;2024-03-17T09:06:00;26.02;;;15.88;;
8050;SDS011;4068;42.158;24.732;2024-03-17T09:08:26;25.25;;;16.42;;
8050;SDS011;4068;42.158;24.732;2024-03-17T09:10:53;28.85;;;16.20;;
8050;SDS011;4068;42.158;24.732;2024-03-17T09:13:20;23.33;;;15.20;;
8050;SDS011;4068;42.158;24.732;2024-03-17T09:15:55;23.92;;;14.98;;
8050;SDS011;4068;42.158;24.732;2024-03-17T09:18:23;25.52;;;16.35;;
8050;SDS011;4068;42.158;24.732;2024-03-17T09:20:55;24.27;;;14.90;;
8050;SDS011;4068;42.158;24.732;2024-03-17T09:23:24;23.92;;;15.20;;
8050;SDS011;4068;42.158;24.732;2024-03-17T09:25:59;25.42;;;15.52;;
8050;SDS011;4068;42.158;24.732;2024-03-17T09:28:36;23.17;;;13.85;;
8050;SDS011;4068;42.158;24.732;2024-03-17T09:31:02;28.30;;;15.18;;
8050;SDS011;4068;42.158;24.732;2024-03-17T09:33:31;23.75;;;14.73;;
8050;SDS011;4068;42.158;24.732;2024-03-17T09:36:00;25.40;;;15.35;;
8050;SDS011;4068;42.158;24.732;2024-03-17T09:38:28;22.60;;;14.48;;
8050;SDS011;4068;42.158;24.732;2024-03-17T09:40:55;24.05;;;14.98;;
8050;SDS011;4068;42.158;24.732;2024-03-17T09:43:26;23.50;;;13.15;;
8050;SDS011;4068;42.158;24.732;2024-03-17T09:45:53;20.45;;;12.30;;
8050;SDS011;4068;42.158;24.732;2024-03-17T09:48:25;19.88;;;11.32;;
8050;SDS011;4068;42.158;24.732;2024-03-17T09:50:58;18.38;;;12.55;;
8050;SDS011;4068;42.158;24.732;2024-03-17T09:53:30;24.85;;;12.50;;
8050;SDS011;4068;42.158;24.732;2024-03-17T09:56:08;21.08;;;13.10;;
8050;SDS011;4068;42.158;24.732;2024-03-17T09:58:34;17.35;;;11.70;;
8050;SDS011;4068;42.158;24.732;2024-03-17T10:01:00;19.95;;;11.82;;
8050;SDS011;4068;42.158;24.732;2024-03-17T10:03:45;15.48;;;10.88;;
8050;SDS011;4068;42.158;24.732;2024-03-17T10:06:15;15.23;;;10.15;;
8050;SDS011;4068;42.158;24.732;2024-03-17T10:08:45;20.05;;;11.02;;
8050;SDS011;4068;42.158;24.732;2024-03-17T10:11:12;18.15;;;12.68;;
8050;SDS011;4068;42.158;24.732;2024-03-17T10:13:40;16.48;;;11.13;;
8050;SDS011;4068;42.158;24.732;2024-03-17T10:16:07;16.42;;;11.07;;
8050;SDS011;4068;42.158;24.732;2024-03-17T10:18:46;15.07;;;9.40;;
8050;SDS011;4068;42.158;24.732;2024-03-17T10:21:26;14.05;;;9.00;;
8050;SDS011;4068;42.158;24.732;2024-03-17T10:26:44;14.27;;;10.38;;
8050;SDS011;4068;42.158;24.732;2024-03-17T10:29:22;15.45;;;10.38;;
8050;SDS011;4068;42.158;24.732;2024-03-17T10:31:52;13.88;;;10.38;;
8050;SDS011;4068;42.158;24.732;2024-03-17T10:34:19;17.20;;;11.00;;
8050;SDS011;4068;42.158;24.732;2024-03-17T10:36:46;14.23;;;9.63;;
8050;SDS011;4068;42.158;24.732;2024-03-17T10:39:27;16.02;;;9.05;;
8050;SDS011;4068;42.158;24.732;2024-03-17T10:42:00;12.73;;;9.30;;
8050;SDS011;4068;42.158;24.732;2024-03-17T10:44:27;13.50;;;8.90;;
8050;SDS011;4068;42.158;24.732;2024-03-17T10:46:54;14.90;;;10.70;;
8050;SDS011;4068;42.158;24.732;2024-03-17T10:49:23;17.13;;;10.57;;
8050;SDS011;4068;42.158;24.732;2024-03-17T10:51:54;15.40;;;9.73;;
8050;SDS011;4068;42.158;24.732;2024-03-17T10:54:23;12.90;;;9.50;;
8050;SDS011;4068;42.158;24.732;2024-03-17T10:57:40;12.70;;;9.63;;
8050;SDS011;4068;42.158;24.732;2024-03-17T11:00:01;14.15;;;9.80;;
8050;SDS011;4068;42.158;24.732;2024-03-17T11:02:30;16.33;;;9.23;;
8050;SDS011;4068;42.158;24.732;2024-03-17T11:05:04;11.35;;;7.97;;
8050;SDS011;4068;42.158;24.732;2024-03-17T11:07:38;10.65;;;7.10;;
8050;SDS011;4068;42.158;24.732;2024-03-17T11:10:10;15.88;;;8.65;;
8050;SDS011;4068;42.158;24.732;2024-03-17T11:12:45;11.48;;;8.57;;
8050;SDS011;4068;42.158;24.732;2024-03-17T11:17:51;9.18;;;7.47;;
8050;SDS011;4068;42.158;24.732;2024-03-17T11:22:51;11.77;;;7.97;;
8050;SDS011;4068;42.158;24.732;2024-03-17T11:28:05;11.38;;;7.60;;
8050;SDS011;4068;42.158;24.732;2024-03-17T11:41:50;12.10;;;8.70;;
8050;SDS011;4068;42.158;24.732;2024-03-17T11:52:00;11.95;;;8.68;;
8050;SDS011;4068;42.158;24.732;2024-03-17T11:54:28;11.77;;;7.82;;
8050;SDS011;4068;42.158;24.732;2024-03-17T11:57:01;11.00;;;8.43;;
8050;SDS011;4068;42.158;24.732;2024-03-17T11:59:34;9.13;;;7.25;;
8050;SDS011;4068;42.158;24.732;2024-03-17T12:02:00;10.07;;;7.00;;
8050;SDS011;4068;42.158;24.732;2024-03-17T12:04:29;9.85;;;6.13;;
8050;SDS011;4068;42.158;24.732;2024-03-17T12:06:55;12.45;;;7.75;;
8050;SDS011;4068;42.158;24.732;2024-03-17T12:09:22;9.73;;;7.63;;
8050;SDS011;4068;42.158;24.732;2024-03-17T12:11:59;10.27;;;8.02;;
8050;SDS011;4068;42.158;24.732;2024-03-17T12:14:26;8.88;;;6.97;;
8050;SDS011;4068;42.158;24.732;2024-03-17T12:16:54;7.70;;;6.13;;
8050;SDS011;4068;42.158;24.732;2024-03-17T12:19:21;8.38;;;6.18;;
8050;SDS011;4068;42.158;24.732;2024-03-17T12:21:48;8.88;;;6.38;;
8050;SDS011;4068;42.158;24.732;2024-03-17T12:24:16;9.52;;;6.97;;
8050;SDS011;4068;42.158;24.732;2024-03-17T12:26:43;10.68;;;7.07;;
8050;SDS011;4068;42.158;24.732;2024-03-17T12:29:26;11.27;;;6.75;;
8050;SDS011;4068;42.158;24.732;2024-03-17T12:31:56;8.88;;;6.00;;
8050;SDS011;4068;42.158;24.732;2024-03-17T12:34:24;9.25;;;6.25;;
8050;SDS011;4068;42.158;24.732;2024-03-17T12:36:51;14.10;;;7.57;;
8050;SDS011;4068;42.158;24.732;2024-03-17T12:39:19;7.50;;;5.97;;
8050;SDS011;4068;42.158;24.732;2024-03-17T12:44:34;8.20;;;6.18;;
8050;SDS011;4068;42.158;24.732;2024-03-17T12:47:01;6.40;;;5.70;;
8050;SDS011;4068;42.158;24.732;2024-03-17T12:49:28;6.30;;;5.40;;
8050;SDS011;4068;42.158;24.732;2024-03-17T12:51:54;7.10;;;5.45;;
8050;SDS011;4068;42.158;24.732;2024-03-17T12:54:21;7.05;;;5.68;;
8050;SDS011;4068;42.158;24.732;2024-03-17T12:56:49;10.63;;;5.65;;
8050;SDS011;4068;42.158;24.732;2024-03-17T12:59:41;6.97;;;5.30;;
8050;SDS011;4068;42.158;24.732;2024-03-17T13:02:26;9.35;;;5.45;;
8050;SDS011;4068;42.158;24.732;2024-03-17T13:05:06;8.20;;;4.90;;
8050;SDS011;4068;42.158;24.732;2024-03-17T13:07:45;7.70;;;5.97;;
8050;SDS011;4068;42.158;24.732;2024-03-17T13:10:14;5.63;;;4.97;;
8050;SDS011;4068;42.158;24.732;2024-03-17T13:12:44;6.43;;;5.25;;
8050;SDS011;4068;42.158;24.732;2024-03-17T13:15:14;6.28;;;5.50;;
8050;SDS011;4068;42.158;24.732;2024-03-17T13:17:41;8.88;;;5.38;;
8050;SDS011;4068;42.158;24.732;2024-03-17T13:20:12;6.20;;;5.03;;
8050;SDS011;4068;42.158;24.732;2024-03-17T13:22:40;6.05;;;5.18;;
8050;SDS011;4068;42.158;24.732;2024-03-17T13:27:42;6.53;;;5.22;;
8050;SDS011;4068;42.158;24.732;2024-03-17T13:30:08;5.85;;;4.93;;
8050;SDS011;4068;42.158;24.732;2024-03-17T13:32:34;8.38;;;5.18;;
8050;SDS011;4068;42.158;24.732;2024-03-17T13:35:01;6.22;;;5.22;;
8050;SDS011;4068;42.158;24.732;2024-03-17T13:37:27;5.03;;;4.53;;
8050;SDS011;4068;42.158;24.732;2024-03-17T13:39:52;6.03;;;5.00;;
8050;SDS011;4068;42.158;24.732;2024-03-17T13:42:18;5.60;;;4.80;;
8050;SDS011;4068;42.158;24.732;2024-03-17T13:44:43;6.20;;;4.88;;
8050;SDS011;4068;42.158;24.732;2024-03-17T13:47:09;5.55;;;4.93;;
8050;SDS011;4068;42.158;24.732;2024-03-17T13:49:34;6.60;;;4.50;;
8050;SDS011;4068;42.158;24.732;2024-03-17T13:52:00;6.57;;;5.47;;
8050;SDS011;4068;42.158;24.732;2024-03-17T13:54:25;8.55;;;5.00;;
8050;SDS011;4068;42.158;24.732;2024-03-17T13:56:51;6.30;;;5.57;;
8050;SDS011;4068;42.158;24.732;2024-03-17T13:59:17;6.75;;;5.28;;
8050;SDS011;4068;42.158;24.732;2024-03-17T14:01:43;6.15;;;5.20;;
8050;SDS011;4068;42.158;24.732;2024-03-17T14:04:12;7.57;;;4.90;;
8050;SDS011;4068;42.158;24.732;2024-03-17T14:06:40;6.07;;;4.70;;
8050;SDS011;4068;42.158;24.732;2024-03-17T14:09:06;6.78;;;5.50;;
8050;SDS011;4068;42.158;24.732;2024-03-17T14:11:34;6.50;;;5.20;;
8050;SDS011;4068;42.158;24.732;2024-03-17T14:14:00;9.30;;;6.03;;
8050;SDS011;4068;42.158;24.732;2024-03-17T14:16:25;5.45;;;4.78;;
8050;SDS011;4068;42.158;24.732;2024-03-17T14:18:51;6.93;;;5.38;;
8050;SDS011;4068;42.158;24.732;2024-03-17T14:21:16;6.40;;;4.60;;
8050;SDS011;4068;42.158;24.732;2024-03-17T14:23:42;5.75;;;5.05;;
8050;SDS011;4068;42.158;24.732;2024-03-17T14:26:10;6.15;;;5.18;;
8050;SDS011;4068;42.158;24.732;2024-03-17T14:28:36;7.40;;;5.25;;
8050;SDS011;4068;42.158;24.732;2024-03-17T14:31:01;5.70;;;5.07;;
8050;SDS011;4068;42.158;24.732;2024-03-17T14:33:27;7.07;;;5.32;;
8050;SDS011;4068;42.158;24.732;2024-03-17T14:36:02;5.60;;;5.05;;
8050;SDS011;4068;42.158;24.732;2024-03-17T14:38:27;8.40;;;5.28;;
8050;SDS011;4068;42.158;24.732;2024-03-17T14:40:53;6.60;;;4.90;;
8050;SDS011;4068;42.158;24.732;2024-03-17T14:43:19;6.82;;;5.10;;
8050;SDS011;4068;42.158;24.732;2024-03-17T14:45:45;11.55;;;5.90;;
8050;SDS011;4068;42.158;24.732;2024-03-17T14:48:11;7.85;;;5.15;;
8050;SDS011;4068;42.158;24.732;2024-03-17T14:50:38;6.97;;;5.63;;
8050;SDS011;4068;42.158;24.732;2024-03-17T14:53:04;6.85;;;5.70;;
8050;SDS011;4068;42.158;24.732;2024-03-17T14:55:30;7.35;;;5.47;;
8050;SDS011;4068;42.158;24.732;2024-03-17T14:57:56;5.70;;;5.13;;
8050;SDS011;4068;42.158;24.732;2024-03-17T15:00:22;6.30;;;4.82;;
8050;SDS011;4068;42.158;24.732;2024-03-17T15:02:50;8.10;;;5.97;;
8050;SDS011;4068;42.158;24.732;2024-03-17T15:05:16;7.40;;;5.30;;
8050;SDS011;4068;42.158;24.732;2024-03-17T15:07:47;8.70;;;5.65;;
8050;SDS011;4068;42.158;24.732;2024-03-17T15:10:13;7.68;;;5.03;;
8050;SDS011;4068;42.158;24.732;2024-03-17T15:12:48;7.70;;;5.38;;
8050;SDS011;4068;42.158;24.732;2024-03-17T15:15:14;10.18;;;5.80;;
8050;SDS011;4068;42.158;24.732;2024-03-17T15:17:39;6.30;;;5.03;;
8050;SDS011;4068;42.158;24.732;2024-03-17T15:20:06;8.38;;;5.03;;
8050;SDS011;4068;42.158;24.732;2024-03-17T15:22:46;9.05;;;6.28;;